Time;durP1;ratioP1;P1;durP2;ratioP2;P2;SDS_P1;SDS_P2;PMS_P1;PMS_P2;Temp;Humidity;BMP_temperature;BMP_pressure;BME280_temperature;BME280_humidity;BME280_pressure;Samples;Min_cycle;Max_cycle;Signal;HPM_P1;HPM_P2
2022/08/10 00:01:15;;;;;;;;;;;11.10;99.90;;;;;;5127456;27;20318;-56
2022/08/10 00:03:55;;;;;;;;;;;10.90;99.90;;;;;;5106887;27;19912;-55
2022/08/10 00:06:34;;;;;;;;;;;10.90;99.90;;;;;;5075032;27;19913;-56
2022/08/10 00:09:14;;;;;;;;;;;10.90;99.90;;;;;;5106418;27;19918;-56
2022/08/10 00:11:54;;;;;;;;;;;11.00;99.90;;;;;;5127223;27;19912;-55
2022/08/10 00:14:34;;;;;;;;;;;10.90;99.90;;;;;;5086135;28;19913;-55
2022/08/10 00:17:14;;;;;;;;;;;10.90;99.90;;;;;;5127290;27;19912;-56
2022/08/10 00:19:53;;;;;;;;;;;10.90;99.90;;;;;;5106428;27;20463;-56
2022/08/10 00:22:33;;;;;;;;;;;10.80;99.90;;;;;;5127125;27;19926;-55
2022/08/10 00:25:13;;;;;;;;;;;10.70;99.90;;;;;;5126808;27;19918;-55
2022/08/10 00:27:53;;;;;;;;;;;10.60;99.90;;;;;;5126968;27;19912;-56
2022/08/10 00:30:33;;;;;;;;;;;10.70;99.90;;;;;;5126534;27;19916;-56
2022/08/10 00:33:13;;;;;;;;;;;10.70;99.90;;;;;;5127019;27;20319;-56
2022/08/10 00:35:53;;;;;;;;;;;10.60;99.90;;;;;;5121357;27;19918;-55
2022/08/10 00:38:35;;;;;;;;;;;10.60;99.90;;;;;;5126731;27;19912;-55
2022/08/10 00:41:15;;;;;;;;;;;10.60;99.90;;;;;;5106549;27;20213;-55
2022/08/10 00:43:55;;;;;;;;;;;10.50;99.90;;;;;;5126966;27;19912;-55
2022/08/10 00:46:35;;;;;;;;;;;10.50;99.90;;;;;;5126897;27;19912;-56
2022/08/10 00:49:15;;;;;;;;;;;10.40;99.90;;;;;;5106471;27;20419;-56
2022/08/10 00:51:55;;;;;;;;;;;10.40;99.90;;;;;;5126942;27;19911;-55
2022/08/10 00:54:35;;;;;;;;;;;10.40;99.90;;;;;;5126704;27;20119;-56
2022/08/10 00:57:16;;;;;;;;;;;10.30;99.90;;;;;;5126883;27;19912;-55
2022/08/10 00:59:57;;;;;;;;;;;10.30;99.90;;;;;;5126707;27;19930;-55
2022/08/10 01:02:39;;;;;;;;;;;10.20;99.90;;;;;;5126773;27;19912;-55
2022/08/10 01:05:19;;;;;;;;;;;10.20;99.90;;;;;;5106046;27;20301;-56
2022/08/10 01:08:10;;;;;;;;;;;10.20;99.90;;;;;;5127064;27;19926;-55
2022/08/10 01:10:56;;;;;;;;;;;10.20;99.90;;;;;;5118862;27;19912;-56
2022/08/10 01:13:39;;;;;;;;;;;10.10;99.90;;;;;;5126841;27;19945;-56
2022/08/10 01:16:24;;;;;;;;;;;10.10;99.90;;;;;;5118369;27;19912;-55
2022/08/10 01:19:13;;;;;;;;;;;10.00;99.90;;;;;;5119957;27;20370;-55
2022/08/10 01:22:08;;;;;;;;;;;10.00;99.90;;;;;;5146723;27;19911;-55
2022/08/10 01:24:57;;;;;;;;;;;9.90;99.90;;;;;;5126598;27;19918;-55
2022/08/10 01:27:40;;;;;;;;;;;9.90;99.90;;;;;;5106033;27;20318;-56
2022/08/10 01:30:23;;;;;;;;;;;9.80;99.90;;;;;;5126548;27;19911;-55
2022/08/10 01:33:04;;;;;;;;;;;9.80;99.90;;;;;;5126844;27;19912;-55
2022/08/10 01:35:49;;;;;;;;;;;9.70;99.90;;;;;;5122426;27;20385;-55
2022/08/10 01:38:31;;;;;;;;;;;9.60;99.90;;;;;;5126640;27;20380;-56
2022/08/10 01:41:14;;;;;;;;;;;9.70;99.90;;;;;;5156098;27;19930;-56
2022/08/10 01:43:58;;;;;;;;;;;9.60;99.90;;;;;;5156439;27;20399;-55
2022/08/10 01:46:39;;;;;;;;;;;9.70;99.90;;;;;;5114867;27;20289;-55
2022/08/10 01:49:20;;;;;;;;;;;9.60;99.90;;;;;;5127755;27;19918;-56
2022/08/10 01:52:01;;;;;;;;;;;9.50;99.90;;;;;;5126741;27;20329;-56
2022/08/10 01:54:42;;;;;;;;;;;9.60;99.90;;;;;;5126666;27;19912;-55
2022/08/10 01:57:24;;;;;;;;;;;9.60;99.90;;;;;;5126896;27;20373;-56
2022/08/10 02:00:08;;;;;;;;;;;9.60;99.90;;;;;;5126119;27;20308;-55
2022/08/10 02:03:00;;;;;;;;;;;9.50;99.90;;;;;;5126632;27;20365;-55
2022/08/10 02:05:43;;;;;;;;;;;9.40;99.90;;;;;;5122424;27;19935;-55
2022/08/10 02:08:25;;;;;;;;;;;9.40;99.90;;;;;;5126973;27;20458;-55
2022/08/10 02:11:06;;;;;;;;;;;9.40;99.90;;;;;;5126737;27;19912;-55
2022/08/10 02:13:47;;;;;;;;;;;9.30;99.90;;;;;;5126108;27;19919;-56
2022/08/10 02:16:42;;;;;;;;;;;9.30;99.90;;;;;;5126598;27;20229;-56
2022/08/10 02:19:23;;;;;;;;;;;9.30;99.90;;;;;;5111634;27;19912;-55
2022/08/10 02:22:06;;;;;;;;;;;9.30;99.90;;;;;;5127073;27;20308;-55
2022/08/10 02:24:46;;;;;;;;;;;9.20;99.90;;;;;;5105919;27;19965;-55
2022/08/10 02:27:28;;;;;;;;;;;9.20;99.90;;;;;;5126846;27;20389;-55
2022/08/10 02:30:10;;;;;;;;;;;9.10;99.90;;;;;;5106102;27;19930;-56
2022/08/10 02:32:51;;;;;;;;;;;9.10;99.90;;;;;;5126624;27;19918;-55
2022/08/10 02:35:32;;;;;;;;;;;9.10;99.90;;;;;;5115426;27;19919;-56
2022/08/10 02:38:15;;;;;;;;;;;9.10;99.90;;;;;;5127244;27;20043;-55
2022/08/10 02:40:57;;;;;;;;;;;9.10;99.90;;;;;;5126591;27;19916;-55
2022/08/10 02:43:40;;;;;;;;;;;9.10;99.90;;;;;;5105935;27;19936;-56
2022/08/10 02:46:24;;;;;;;;;;;9.10;99.90;;;;;;5126614;27;19919;-55
2022/08/10 02:49:04;;;;;;;;;;;9.00;99.90;;;;;;5130085;27;19911;-56
2022/08/10 02:51:46;;;;;;;;;;;8.90;99.90;;;;;;5085778;28;19950;-55
2022/08/10 02:54:28;;;;;;;;;;;8.90;99.90;;;;;;5126857;27;20292;-55
2022/08/10 02:57:12;;;;;;;;;;;8.80;99.90;;;;;;5126982;27;20288;-55
2022/08/10 02:59:55;;;;;;;;;;;8.70;99.90;;;;;;5106189;27;20378;-56
2022/08/10 03:02:37;;;;;;;;;;;8.70;99.90;;;;;;5126912;27;19920;-56
2022/08/10 03:05:19;;;;;;;;;;;8.60;99.90;;;;;;5106287;27;19950;-55
2022/08/10 03:08:00;;;;;;;;;;;8.70;99.90;;;;;;5106825;27;20427;-55
2022/08/10 03:10:41;;;;;;;;;;;8.60;99.90;;;;;;5126469;27;19912;-56
2022/08/10 03:13:24;;;;;;;;;;;8.60;99.90;;;;;;5127132;27;19959;-55
2022/08/10 03:16:05;;;;;;;;;;;8.50;99.90;;;;;;5106497;27;20369;-55
2022/08/10 03:18:46;;;;;;;;;;;8.40;99.90;;;;;;5124680;27;19973;-56
2022/08/10 03:21:27;;;;;;;;;;;8.40;99.90;;;;;;5126728;27;20075;-56
2022/08/10 03:24:08;;;;;;;;;;;8.30;99.90;;;;;;5127644;27;19912;-55
2022/08/10 03:26:49;;;;;;;;;;;8.30;99.90;;;;;;5092998;27;19919;-55
2022/08/10 03:29:28;;;;;;;;;;;8.30;99.90;;;;;;5124906;27;19912;-55
2022/08/10 03:32:09;;;;;;;;;;;8.30;99.90;;;;;;5174777;27;19918;-55
2022/08/10 03:34:50;;;;;;;;;;;8.30;99.90;;;;;;5126763;27;19916;-56
2022/08/10 03:37:29;;;;;;;;;;;8.30;99.90;;;;;;5128026;27;20296;-56
2022/08/10 03:40:10;;;;;;;;;;;8.20;99.90;;;;;;5126886;27;19918;-56
2022/08/10 03:42:52;;;;;;;;;;;8.20;99.90;;;;;;5147611;27;19911;-57
2022/08/10 03:45:33;;;;;;;;;;;8.20;99.90;;;;;;5124360;27;20313;-56
2022/08/10 03:48:14;;;;;;;;;;;8.20;99.90;;;;;;5126787;27;20268;-56
2022/08/10 03:50:55;;;;;;;;;;;8.30;99.90;;;;;;5106466;27;19946;-56
2022/08/10 03:53:36;;;;;;;;;;;8.20;99.90;;;;;;5106319;27;20432;-56
2022/08/10 03:56:16;;;;;;;;;;;8.20;99.90;;;;;;5118147;27;19912;-57
2022/08/10 03:58:57;;;;;;;;;;;8.20;99.90;;;;;;5126978;27;19922;-57
2022/08/10 04:01:37;;;;;;;;;;;8.20;99.90;;;;;;5126903;27;20349;-56
2022/08/10 04:04:17;;;;;;;;;;;8.30;99.90;;;;;;5126533;27;20395;-56
2022/08/10 04:06:58;;;;;;;;;;;8.20;99.90;;;;;;5127255;27;19911;-56
2022/08/10 04:09:39;;;;;;;;;;;8.30;99.90;;;;;;5105887;27;19927;-57
2022/08/10 04:12:18;;;;;;;;;;;8.40;99.90;;;;;;5127119;27;20138;-56
2022/08/10 04:14:58;;;;;;;;;;;8.40;99.90;;;;;;5127447;27;19918;-56
2022/08/10 04:17:38;;;;;;;;;;;8.50;99.90;;;;;;5126752;27;19916;-56
2022/08/10 04:20:19;;;;;;;;;;;8.60;99.90;;;;;;5105642;27;19961;-56
2022/08/10 04:23:02;;;;;;;;;;;8.60;99.90;;;;;;5106145;27;19934;-57
2022/08/10 04:25:42;;;;;;;;;;;8.70;99.90;;;;;;5121636;27;19912;-56
2022/08/10 04:28:23;;;;;;;;;;;8.80;99.90;;;;;;5127256;27;19926;-56
2022/08/10 04:31:04;;;;;;;;;;;8.90;99.90;;;;;;5092474;27;20455;-56
2022/08/10 04:33:47;;;;;;;;;;;9.00;99.90;;;;;;5126741;27;19918;-56
2022/08/10 04:36:28;;;;;;;;;;;9.20;99.90;;;;;;5116832;27;19912;-56
2022/08/10 04:39:09;;;;;;;;;;;9.30;99.90;;;;;;5106335;27;19912;-56
2022/08/10 04:41:49;;;;;;;;;;;9.50;99.90;;;;;;5106371;27;19938;-56
2022/08/10 04:44:29;;;;;;;;;;;9.50;99.90;;;;;;5126091;27;19915;-57
2022/08/10 04:47:10;;;;;;;;;;;9.50;99.90;;;;;;5100239;27;19946;-56
2022/08/10 04:49:50;;;;;;;;;;;9.60;99.90;;;;;;5105417;27;20115;-56
2022/08/10 04:52:30;;;;;;;;;;;9.70;99.90;;;;;;5126563;27;19912;-56
2022/08/10 04:55:10;;;;;;;;;;;9.80;99.90;;;;;;5126640;27;19926;-56
2022/08/10 04:57:50;;;;;;;;;;;9.90;99.90;;;;;;5126761;27;19922;-56
2022/08/10 05:00:30;;;;;;;;;;;10.10;99.90;;;;;;5105803;27;20423;-56
2022/08/10 05:03:09;;;;;;;;;;;10.30;99.90;;;;;;5126279;27;20320;-56
2022/08/10 05:05:49;;;;;;;;;;;10.70;99.90;;;;;;5121778;27;19919;-56
2022/08/10 05:08:29;;;;;;;;;;;11.30;99.90;;;;;;5106451;27;19919;-56
2022/08/10 05:11:09;;;;;;;;;;;11.80;99.90;;;;;;5126314;27;19912;-56
2022/08/10 05:13:49;;;;;;;;;;;12.30;99.90;;;;;;5126515;27;19911;-56
2022/08/10 05:16:28;;;;;;;;;;;12.60;99.90;;;;;;5116326;27;19912;-57
2022/08/10 05:19:08;;;;;;;;;;;12.60;99.90;;;;;;5126804;27;19915;-57
2022/08/10 05:21:48;;;;;;;;;;;12.50;99.90;;;;;;5127240;27;19918;-56
2022/08/10 05:24:28;;;;;;;;;;;12.40;99.90;;;;;;5106304;27;19916;-56
2022/08/10 05:27:08;;;;;;;;;;;12.40;99.90;;;;;;5126980;27;19912;-57
2022/08/10 05:29:48;;;;;;;;;;;12.40;99.90;;;;;;5126434;27;20298;-56
2022/08/10 05:32:27;;;;;;;;;;;12.20;99.90;;;;;;5120401;27;20340;-57
2022/08/10 05:35:08;;;;;;;;;;;12.10;99.90;;;;;;5123236;27;19922;-56
2022/08/10 05:37:50;;;;;;;;;;;12.00;99.90;;;;;;5117473;27;19912;-57
2022/08/10 05:40:30;;;;;;;;;;;12.10;99.90;;;;;;5115870;27;20116;-56
2022/08/10 05:43:10;;;;;;;;;;;12.10;99.90;;;;;;5113901;27;19935;-57
2022/08/10 05:45:53;;;;;;;;;;;12.20;99.90;;;;;;5113605;27;19949;-56
2022/08/10 05:48:33;;;;;;;;;;;12.40;99.90;;;;;;5103652;27;19916;-57
2022/08/10 05:51:13;;;;;;;;;;;12.70;99.90;;;;;;5118466;27;19915;-56
2022/08/10 05:53:53;;;;;;;;;;;13.20;99.90;;;;;;5100834;27;20348;-56
2022/08/10 05:56:32;;;;;;;;;;;13.50;99.90;;;;;;5123415;27;19916;-56
2022/08/10 05:59:13;;;;;;;;;;;13.80;99.90;;;;;;5110877;27;19918;-56
2022/08/10 06:01:54;;;;;;;;;;;14.10;99.90;;;;;;5108943;27;20474;-56
2022/08/10 06:04:37;;;;;;;;;;;14.30;99.90;;;;;;5117000;27;19920;-56
2022/08/10 06:07:19;;;;;;;;;;;14.50;99.90;;;;;;5082806;27;19928;-56
2022/08/10 06:10:00;;;;;;;;;;;14.70;99.90;;;;;;5098365;27;20328;-56
2022/08/10 06:12:41;;;;;;;;;;;14.90;99.90;;;;;;5109143;27;19918;-56
2022/08/10 06:15:23;;;;;;;;;;;15.20;99.90;;;;;;5121069;27;20387;-56
2022/08/10 06:18:04;;;;;;;;;;;15.40;99.90;;;;;;5124582;27;19930;-55
2022/08/10 06:20:45;;;;;;;;;;;15.60;99.90;;;;;;5095978;27;19918;-55
2022/08/10 06:23:25;;;;;;;;;;;15.80;99.90;;;;;;5094189;27;19962;-56
2022/08/10 06:26:06;;;;;;;;;;;16.00;99.90;;;;;;5112284;27;19915;-55
2022/08/10 06:28:49;;;;;;;;;;;16.20;99.90;;;;;;5120727;27;19920;-55
2022/08/10 06:31:30;;;;;;;;;;;16.30;99.90;;;;;;5105362;27;19918;-55
2022/08/10 06:34:11;;;;;;;;;;;16.50;99.90;;;;;;5127435;27;19961;-56
2022/08/10 06:36:53;;;;;;;;;;;16.70;99.90;;;;;;5115526;27;19911;-55
2022/08/10 06:39:34;;;;;;;;;;;16.80;99.90;;;;;;5117608;27;19918;-55
2022/08/10 06:42:15;;;;;;;;;;;17.00;99.90;;;;;;5096649;27;19916;-57
2022/08/10 06:44:57;;;;;;;;;;;17.30;99.90;;;;;;5099866;27;19920;-55
2022/08/10 06:47:41;;;;;;;;;;;17.50;99.90;;;;;;5115816;27;19912;-55
2022/08/10 06:50:22;;;;;;;;;;;17.60;99.90;;;;;;5103037;27;19918;-55
2022/08/10 06:53:03;;;;;;;;;;;17.90;99.90;;;;;;5121474;27;20277;-58
2022/08/10 06:55:48;;;;;;;;;;;18.10;99.90;;;;;;5116354;27;19911;-56
2022/08/10 06:58:41;;;;;;;;;;;18.40;99.90;;;;;;5126122;27;19918;-56
2022/08/10 07:01:24;;;;;;;;;;;18.60;99.90;;;;;;5121178;27;19912;-55
2022/08/10 07:04:05;;;;;;;;;;;18.90;99.90;;;;;;5124067;27;20274;-56
2022/08/10 07:06:47;;;;;;;;;;;19.10;99.90;;;;;;5116739;27;19920;-55
2022/08/10 07:09:28;;;;;;;;;;;19.30;99.90;;;;;;5115793;27;19934;-56
2022/08/10 07:12:09;;;;;;;;;;;19.60;99.90;;;;;;5124931;27;19919;-56
2022/08/10 07:14:50;;;;;;;;;;;20.00;99.90;;;;;;5105273;27;19934;-56
2022/08/10 07:17:32;;;;;;;;;;;20.30;99.90;;;;;;5109001;27;19919;-57
2022/08/10 07:20:15;;;;;;;;;;;20.50;99.90;;;;;;5108746;27;19912;-57
2022/08/10 07:22:56;;;;;;;;;;;20.80;99.90;;;;;;5123263;27;19912;-56
2022/08/10 07:25:38;;;;;;;;;;;21.10;99.90;;;;;;5090630;27;20410;-57
2022/08/10 07:28:19;;;;;;;;;;;21.30;95.70;;;;;;5089235;27;19930;-56
2022/08/10 07:31:01;;;;;;;;;;;21.40;92.10;;;;;;5125541;27;19934;-57
2022/08/10 07:33:41;;;;;;;;;;;21.50;89.50;;;;;;5104111;27;19916;-57
2022/08/10 07:36:22;;;;;;;;;;;21.60;89.20;;;;;;5122641;27;19926;-56
2022/08/10 07:39:05;;;;;;;;;;;21.70;84.10;;;;;;5112304;27;19912;-56
2022/08/10 07:41:47;;;;;;;;;;;21.80;86.10;;;;;;5119647;27;20415;-57
2022/08/10 07:44:28;;;;;;;;;;;22.00;87.00;;;;;;5097807;27;19918;-57
2022/08/10 07:47:10;;;;;;;;;;;22.20;78.00;;;;;;5110613;27;19912;-57
2022/08/10 07:49:52;;;;;;;;;;;22.30;72.60;;;;;;5124336;27;19922;-57
2022/08/10 07:52:33;;;;;;;;;;;22.30;72.50;;;;;;5102522;27;19912;-56
2022/08/10 07:55:15;;;;;;;;;;;22.40;68.20;;;;;;5143136;27;20732;-56
2022/08/10 07:57:56;;;;;;;;;;;22.30;66.20;;;;;;5089808;27;20332;-56
2022/08/10 08:00:36;;;;;;;;;;;22.30;64.80;;;;;;5102325;27;19926;-56
2022/08/10 08:03:20;;;;;;;;;;;22.40;63.20;;;;;;5088124;27;19924;-56
2022/08/10 08:06:01;;;;;;;;;;;22.40;61.30;;;;;;5100290;27;19949;-56
2022/08/10 08:08:42;;;;;;;;;;;22.40;62.50;;;;;;5098455;27;20397;-56
2022/08/10 08:11:23;;;;;;;;;;;22.40;60.50;;;;;;5125153;27;19918;-56
2022/08/10 08:14:04;;;;;;;;;;;22.60;60.80;;;;;;5125862;27;19911;-56
2022/08/10 08:16:46;;;;;;;;;;;22.60;61.80;;;;;;5147327;27;19915;-56
2022/08/10 08:19:26;;;;;;;;;;;22.70;59.60;;;;;;5126631;27;20389;-57
2022/08/10 08:22:07;;;;;;;;;;;22.70;58.20;;;;;;5127078;27;19929;-56
2022/08/10 08:24:47;;;;;;;;;;;22.80;58.70;;;;;;5127065;27;19918;-56
2022/08/10 08:27:28;;;;;;;;;;;22.90;56.70;;;;;;5127110;27;19959;-56
2022/08/10 08:30:09;;;;;;;;;;;22.90;55.50;;;;;;5126990;27;19925;-56
2022/08/10 08:32:50;;;;;;;;;;;22.90;56.80;;;;;;5106545;27;20308;-56
2022/08/10 08:35:32;;;;;;;;;;;23.00;55.30;;;;;;5124696;27;19918;-56
2022/08/10 08:38:13;;;;;;;;;;;23.00;55.50;;;;;;5126838;27;19911;-56
2022/08/10 08:41:01;;;;;;;;;;;23.10;53.00;;;;;;5127455;27;19918;-56
2022/08/10 08:43:52;;;;;;;;;;;23.10;52.10;;;;;;5106549;27;20479;-57
2022/08/10 08:46:56;;;;;;;;;;;23.10;53.30;;;;;;5115617;27;19912;-57
2022/08/10 08:49:51;;;;;;;;;;;23.30;52.50;;;;;;5106300;27;19926;-56
2022/08/10 08:52:34;;;;;;;;;;;23.40;53.10;;;;;;5127168;27;19934;-56
2022/08/10 08:55:19;;;;;;;;;;;23.30;51.90;;;;;;5127422;27;19918;-56
2022/08/10 08:58:04;;;;;;;;;;;23.40;52.10;;;;;;5127313;27;19912;-56
2022/08/10 09:00:49;;;;;;;;;;;23.40;51.90;;;;;;5126984;27;20257;-56
2022/08/10 09:03:46;;;;;;;;;;;23.40;51.10;;;;;;5126969;27;19912;-56
2022/08/10 09:06:43;;;;;;;;;;;23.50;50.60;;;;;;5117058;27;19919;-56
2022/08/10 09:09:35;;;;;;;;;;;23.40;49.60;;;;;;5126974;27;19912;-56
2022/08/10 09:12:25;;;;;;;;;;;23.50;49.30;;;;;;5106769;27;19923;-56
2022/08/10 09:15:08;;;;;;;;;;;23.50;48.50;;;;;;5127434;27;20376;-56
2022/08/10 09:17:53;;;;;;;;;;;23.50;47.50;;;;;;5127549;27;19918;-56
2022/08/10 09:20:37;;;;;;;;;;;23.60;47.50;;;;;;5127018;27;19922;-57
2022/08/10 09:23:20;;;;;;;;;;;23.60;48.40;;;;;;5127274;27;19912;-56
2022/08/10 09:26:03;;;;;;;;;;;23.70;49.20;;;;;;5120461;27;19918;-56
2022/08/10 09:28:45;;;;;;;;;;;23.80;48.80;;;;;;5126877;27;19920;-57
2022/08/10 09:31:27;;;;;;;;;;;24.00;48.40;;;;;;5127291;27;20300;-56
2022/08/10 09:34:12;;;;;;;;;;;24.10;47.90;;;;;;5106654;27;20328;-56
2022/08/10 09:36:56;;;;;;;;;;;24.10;47.50;;;;;;5142439;22;19911;-54
2022/08/10 09:39:42;;;;;;;;;;;24.20;47.60;;;;;;5104548;27;19912;-54
2022/08/10 09:42:25;;;;;;;;;;;24.30;47.80;;;;;;5122823;27;19916;-54
2022/08/10 09:45:08;;;;;;;;;;;24.40;46.00;;;;;;5125281;27;19934;-55
2022/08/10 09:47:55;;;;;;;;;;;24.40;46.40;;;;;;5115637;27;19912;-54
2022/08/10 09:50:39;;;;;;;;;;;24.40;46.80;;;;;;5124480;27;19912;-54
2022/08/10 09:53:24;;;;;;;;;;;24.50;46.60;;;;;;5124501;27;19949;-53
2022/08/10 09:56:13;;;;;;;;;;;24.60;46.40;;;;;;5125232;27;20520;-55
2022/08/10 09:59:00;;;;;;;;;;;24.70;45.60;;;;;;5123391;27;19918;-54
2022/08/10 10:01:41;;;;;;;;;;;24.80;45.50;;;;;;5085183;28;19913;-54
2022/08/10 10:04:25;;;;;;;;;;;24.80;44.20;;;;;;5125383;27;19922;-55
2022/08/10 10:07:08;;;;;;;;;;;24.80;43.30;;;;;;5121632;27;19912;-54
2022/08/10 10:09:52;;;;;;;;;;;24.80;43.20;;;;;;5125001;27;19925;-52
2022/08/10 10:12:39;;;;;;;;;;;24.70;43.90;;;;;;5084611;28;19920;-54
2022/08/10 10:15:33;;;;;;;;;;;24.70;44.80;;;;;;5125555;27;20585;-53
2022/08/10 10:18:22;;;;;;;;;;;24.80;43.10;;;;;;5111775;27;19919;-54
2022/08/10 10:21:05;;;;;;;;;;;24.80;43.20;;;;;;5124747;27;19922;-54
2022/08/10 10:23:54;;;;;;;;;;;25.00;42.80;;;;;;5124962;27;20134;-53
2022/08/10 10:26:41;;;;;;;;;;;25.10;42.30;;;;;;5103549;27;20419;-54
2022/08/10 10:29:28;;;;;;;;;;;25.20;41.00;;;;;;5124760;27;19918;-54
2022/08/10 10:32:13;;;;;;;;;;;25.20;40.90;;;;;;5124960;27;19911;-54
2022/08/10 10:34:59;;;;;;;;;;;25.30;40.70;;;;;;5125200;27;19919;-54
2022/08/10 10:37:40;;;;;;;;;;;25.30;40.80;;;;;;5125265;27;19912;-53
2022/08/10 10:40:21;;;;;;;;;;;25.30;40.50;;;;;;5124049;27;19945;-54
2022/08/10 10:43:05;;;;;;;;;;;25.40;40.90;;;;;;5125439;27;19916;-54
2022/08/10 10:45:50;;;;;;;;;;;25.60;39.50;;;;;;5125317;27;19926;-54
2022/08/10 10:48:38;;;;;;;;;;;25.70;40.00;;;;;;5125039;27;19912;-54
2022/08/10 10:51:21;;;;;;;;;;;25.80;39.80;;;;;;5125178;27;20296;-54
2022/08/10 10:54:07;;;;;;;;;;;25.80;40.00;;;;;;5125335;27;19953;-54
2022/08/10 10:56:54;;;;;;;;;;;25.80;37.80;;;;;;5103437;27;19966;-54
2022/08/10 10:59:37;;;;;;;;;;;25.80;38.00;;;;;;5124829;27;19916;-55
2022/08/10 11:02:31;;;;;;;;;;;25.70;37.00;;;;;;5125563;27;19916;-53
2022/08/10 11:05:17;;;;;;;;;;;25.70;38.30;;;;;;5125708;27;19945;-55
2022/08/10 11:07:59;;;;;;;;;;;26.00;37.80;;;;;;5113514;27;19912;-54
2022/08/10 11:10:44;;;;;;;;;;;26.20;37.10;;;;;;5110868;27;19912;-54
2022/08/10 11:13:33;;;;;;;;;;;26.30;37.50;;;;;;5125360;27;19912;-53
2022/08/10 11:16:16;;;;;;;;;;;26.30;35.60;;;;;;5108495;27;19916;-54
2022/08/10 11:18:58;;;;;;;;;;;26.60;36.30;;;;;;5103901;27;19926;-53
2022/08/10 11:21:45;;;;;;;;;;;26.70;36.30;;;;;;5104869;27;19961;-54
2022/08/10 11:24:27;;;;;;;;;;;27.10;35.50;;;;;;5125577;27;19968;-54
2022/08/10 11:27:13;;;;;;;;;;;27.30;32.60;;;;;;5121221;27;19912;-54
2022/08/10 11:29:59;;;;;;;;;;;27.20;31.10;;;;;;5130983;27;20190;-54
2022/08/10 11:32:44;;;;;;;;;;;27.40;32.20;;;;;;5125694;27;19912;-54
2022/08/10 11:35:27;;;;;;;;;;;27.40;28.50;;;;;;5125504;27;19912;-54
2022/08/10 11:38:10;;;;;;;;;;;27.50;29.00;;;;;;5114713;27;19916;-54
2022/08/10 11:40:56;;;;;;;;;;;27.80;31.30;;;;;;5129559;27;19956;-54
2022/08/10 11:43:44;;;;;;;;;;;28.30;29.80;;;;;;5103068;27;19930;-54
2022/08/10 11:46:30;;;;;;;;;;;28.80;29.50;;;;;;5124538;27;20088;-54
2022/08/10 11:49:13;;;;;;;;;;;29.00;29.50;;;;;;5103039;27;20086;-54
2022/08/10 11:51:56;;;;;;;;;;;29.20;28.60;;;;;;5104609;27;19926;-54
2022/08/10 11:54:41;;;;;;;;;;;29.20;27.30;;;;;;5124798;27;20273;-53
2022/08/10 11:57:22;;;;;;;;;;;29.20;27.70;;;;;;5118483;27;19912;-55
2022/08/10 12:00:03;;;;;;;;;;;29.20;29.50;;;;;;5124935;27;19916;-54
2022/08/10 12:02:49;;;;;;;;;;;29.10;28.30;;;;;;5105107;27;19977;-53
2022/08/10 12:05:41;;;;;;;;;;;28.60;29.00;;;;;;5124785;27;19912;-53
2022/08/10 12:08:24;;;;;;;;;;;28.40;30.10;;;;;;5110726;27;20386;-54
2022/08/10 12:11:04;;;;;;;;;;;28.50;30.10;;;;;;5125170;27;19911;-54
2022/08/10 12:13:47;;;;;;;;;;;28.50;29.40;;;;;;5105294;27;20343;-54
2022/08/10 12:16:28;;;;;;;;;;;28.30;30.00;;;;;;5125299;27;19996;-54
2022/08/10 12:19:10;;;;;;;;;;;28.60;30.50;;;;;;5104348;27;20381;-54
2022/08/10 12:21:56;;;;;;;;;;;29.00;29.30;;;;;;5145687;27;19915;-54
2022/08/10 12:24:39;;;;;;;;;;;29.30;29.20;;;;;;5125304;27;19922;-54
2022/08/10 12:27:23;;;;;;;;;;;29.30;30.00;;;;;;5119894;27;20109;-54
2022/08/10 12:30:05;;;;;;;;;;;29.00;31.30;;;;;;5124749;27;19912;-54
2022/08/10 12:32:48;;;;;;;;;;;28.20;32.30;;;;;;5104739;27;19947;-54
2022/08/10 12:35:32;;;;;;;;;;;27.80;33.70;;;;;;5124993;27;19916;-54
2022/08/10 12:38:14;;;;;;;;;;;28.00;33.90;;;;;;5091405;27;20292;-54
2022/08/10 12:40:58;;;;;;;;;;;28.50;32.40;;;;;;5124468;27;19925;-54
2022/08/10 12:43:41;;;;;;;;;;;28.60;30.90;;;;;;5125702;27;19912;-53
2022/08/10 12:46:28;;;;;;;;;;;28.10;30.80;;;;;;5125490;27;19922;-54
2022/08/10 12:49:11;;;;;;;;;;;27.50;30.80;;;;;;5103601;27;19930;-54
2022/08/10 12:51:53;;;;;;;;;;;27.10;32.30;;;;;;5104370;27;20385;-54
2022/08/10 12:54:36;;;;;;;;;;;26.70;33.00;;;;;;5124873;27;19934;-54
2022/08/10 12:57:18;;;;;;;;;;;26.60;32.90;;;;;;5124422;27;19911;-54
2022/08/10 13:00:00;;;;;;;;;;;26.50;34.10;;;;;;5123468;27;19922;-54
2022/08/10 13:02:41;;;;;;;;;;;26.90;32.80;;;;;;5105020;27;20286;-54
2022/08/10 13:05:25;;;;;;;;;;;27.20;33.00;;;;;;5125761;27;19918;-54
2022/08/10 13:11:05;;;;;;;;;;;27.90;34.10;;;;;;5104891;27;19930;-54
2022/08/10 13:13:46;;;;;;;;;;;28.20;32.50;;;;;;5125673;27;19918;-54
2022/08/10 13:16:27;;;;;;;;;;;28.50;33.40;;;;;;5125673;27;19918;-54
2022/08/10 13:19:08;;;;;;;;;;;28.70;32.60;;;;;;5117528;27;19962;-54
2022/08/10 13:21:50;;;;;;;;;;;29.00;32.20;;;;;;5121939;27;19929;-54
2022/08/10 13:24:32;;;;;;;;;;;29.30;31.80;;;;;;5105316;27;20308;-54
2022/08/10 13:27:14;;;;;;;;;;;29.60;30.70;;;;;;5105536;27;19953;-54
2022/08/10 13:29:56;;;;;;;;;;;29.90;30.80;;;;;;5105134;27;19918;-55
2022/08/10 13:32:37;;;;;;;;;;;30.20;31.70;;;;;;5126863;27;19933;-54
2022/08/10 13:35:19;;;;;;;;;;;30.60;29.60;;;;;;5126750;27;19925;-54
2022/08/10 13:38:01;;;;;;;;;;;30.80;29.10;;;;;;5115672;27;20459;-54
2022/08/10 13:40:41;;;;;;;;;;;30.90;29.30;;;;;;5126655;27;19912;-54
2022/08/10 13:43:21;;;;;;;;;;;30.70;29.80;;;;;;5127122;27;19953;-53
2022/08/10 13:46:00;;;;;;;;;;;30.70;29.70;;;;;;5106266;27;19935;-53
2022/08/10 13:48:42;;;;;;;;;;;30.50;29.90;;;;;;5109942;27;19934;-53
2022/08/10 13:51:23;;;;;;;;;;;30.10;29.70;;;;;;5120811;27;19926;-53
2022/08/10 13:54:04;;;;;;;;;;;29.80;29.60;;;;;;5126029;27;19919;-53
2022/08/10 13:56:46;;;;;;;;;;;29.70;29.80;;;;;;5126376;27;19912;-53
2022/08/10 13:59:27;;;;;;;;;;;29.40;29.30;;;;;;5117571;27;19916;-54
2022/08/10 14:02:08;;;;;;;;;;;28.90;29.90;;;;;;5119752;27;19912;-53
2022/08/10 14:04:49;;;;;;;;;;;28.50;30.30;;;;;;5124518;27;19965;-53
2022/08/10 14:07:31;;;;;;;;;;;28.60;30.60;;;;;;5118432;27;20304;-53
2022/08/10 14:10:13;;;;;;;;;;;29.00;30.70;;;;;;5125623;27;19926;-53
2022/08/10 14:12:53;;;;;;;;;;;29.50;29.90;;;;;;5125739;27;20311;-54
2022/08/10 14:15:37;;;;;;;;;;;30.00;28.70;;;;;;5105179;27;19950;-54
2022/08/10 14:18:18;;;;;;;;;;;30.00;28.70;;;;;;5091802;27;19954;-53
2022/08/10 14:20:59;;;;;;;;;;;29.70;28.70;;;;;;5125354;27;19911;-54
2022/08/10 14:23:41;;;;;;;;;;;29.50;28.70;;;;;;5125789;27;19918;-53
2022/08/10 14:26:24;;;;;;;;;;;29.30;29.50;;;;;;5125565;27;19918;-53
2022/08/10 14:29:06;;;;;;;;;;;29.30;29.20;;;;;;5122684;27;19946;-53
2022/08/10 14:31:48;;;;;;;;;;;29.30;29.30;;;;;;5125704;27;19919;-53
2022/08/10 14:34:30;;;;;;;;;;;28.90;29.50;;;;;;5125522;27;19912;-53
2022/08/10 14:37:15;;;;;;;;;;;28.80;30.20;;;;;;5119936;27;20418;-53
2022/08/10 14:39:58;;;;;;;;;;;28.50;29.70;;;;;;5112380;27;19922;-54
2022/08/10 14:42:44;;;;;;;;;;;28.20;29.60;;;;;;5120722;27;19912;-53
2022/08/10 14:45:27;;;;;;;;;;;28.00;30.00;;;;;;5090759;27;19913;-53
2022/08/10 14:48:09;;;;;;;;;;;27.90;30.70;;;;;;5112334;27;20467;-53
2022/08/10 14:50:52;;;;;;;;;;;27.80;31.00;;;;;;5146052;27;19968;-53
2022/08/10 14:53:34;;;;;;;;;;;27.70;31.30;;;;;;5125888;27;19918;-53
2022/08/10 14:56:16;;;;;;;;;;;27.80;32.00;;;;;;5125979;27;19933;-53
2022/08/10 14:58:57;;;;;;;;;;;27.80;31.80;;;;;;5104599;27;19912;-54
2022/08/10 15:01:41;;;;;;;;;;;27.90;31.70;;;;;;5125753;27;19918;-55
2022/08/10 15:04:23;;;;;;;;;;;27.90;31.00;;;;;;5084873;28;19950;-54
2022/08/10 15:07:05;;;;;;;;;;;27.70;31.70;;;;;;5122466;27;19913;-55
2022/08/10 15:09:46;;;;;;;;;;;27.80;31.20;;;;;;5125545;27;20650;-54
2022/08/10 15:12:30;;;;;;;;;;;27.60;31.70;;;;;;5105999;27;19926;-54
2022/08/10 15:15:11;;;;;;;;;;;27.40;31.80;;;;;;5126844;27;19918;-55
2022/08/10 15:17:55;;;;;;;;;;;27.30;33.10;;;;;;5147197;27;20426;-55
2022/08/10 15:20:36;;;;;;;;;;;27.20;32.90;;;;;;5127020;27;19911;-54
2022/08/10 15:23:17;;;;;;;;;;;27.10;33.10;;;;;;5127125;27;19912;-54
2022/08/10 15:25:59;;;;;;;;;;;27.20;32.60;;;;;;5126777;27;19922;-55
2022/08/10 15:28:43;;;;;;;;;;;27.50;33.00;;;;;;5109876;27;19912;-53
2022/08/10 15:31:23;;;;;;;;;;;27.70;30.40;;;;;;5127154;27;20381;-55
2022/08/10 15:37:12;;;;;;;;;;;28.20;29.70;;;;;;5123930;27;19912;-54
2022/08/10 15:40:03;;;;;;;;;;;28.40;30.50;;;;;;5155620;27;20315;-54
2022/08/10 15:42:46;;;;;;;;;;;28.20;29.70;;;;;;5125619;27;20395;-54
2022/08/10 15:45:26;;;;;;;;;;;27.80;30.80;;;;;;5125288;27;19916;-55
2022/08/10 15:48:06;;;;;;;;;;;27.20;30.80;;;;;;5128433;27;19924;-54
2022/08/10 15:50:49;;;;;;;;;;;26.90;31.70;;;;;;5101582;27;20347;-53
2022/08/10 15:53:33;;;;;;;;;;;26.90;32.20;;;;;;5122912;27;19918;-53
2022/08/10 15:56:15;;;;;;;;;;;27.10;32.40;;;;;;5103463;27;19930;-53